createdAt,value
2022-10-22T00:01:48.636Z,9.45
2022-10-22T00:04:15.087Z,15.10
2022-10-22T00:06:42.729Z,13.75
2022-10-22T00:09:09.289Z,14.23
2022-10-22T00:11:35.744Z,12.10
2022-10-22T00:14:02.222Z,12.70
2022-10-22T00:16:28.883Z,15.55
2022-10-22T00:18:55.357Z,11.10
2022-10-22T00:21:21.837Z,10.80
2022-10-22T00:23:48.473Z,14.68
2022-10-22T00:26:15.064Z,11.13
2022-10-22T00:28:41.549Z,13.48
2022-10-22T00:31:08.221Z,11.68
2022-10-22T00:33:34.741Z,10.98
2022-10-22T00:36:01.213Z,11.25
2022-10-22T00:38:27.725Z,13.23
2022-10-22T00:40:54.230Z,12.77
2022-10-22T00:43:21.041Z,12.38
2022-10-22T00:45:47.753Z,13.32
2022-10-22T00:48:27.274Z,14.13
2022-10-22T00:51:01.398Z,14.45
2022-10-22T00:53:44.019Z,14.10
2022-10-22T00:56:11.591Z,12.82
2022-10-22T00:58:45.104Z,13.32
2022-10-22T01:01:16.818Z,10.13
2022-10-22T01:03:43.989Z,11.15
2022-10-22T01:06:14.929Z,12.40
2022-10-22T01:08:53.511Z,12.02
2022-10-22T01:11:29.973Z,12.73
2022-10-22T01:14:26.754Z,12.10
2022-10-22T01:17:19.088Z,10.63
2022-10-22T01:20:04.033Z,11.90
2022-10-22T01:22:44.273Z,10.63
2022-10-22T01:25:37.890Z,13.07
2022-10-22T01:28:35.409Z,11.50
2022-10-22T01:31:04.229Z,11.93
2022-10-22T01:33:31.668Z,12.90
2022-10-22T01:36:00.108Z,11.57
2022-10-22T01:38:27.191Z,10.90
2022-10-22T01:40:54.655Z,9.02
2022-10-22T01:43:21.444Z,14.63
2022-10-22T01:45:51.989Z,9.77
2022-10-22T01:48:46.036Z,12.73
2022-10-22T01:51:50.042Z,9.00
2022-10-22T01:54:31.218Z,14.23
2022-10-22T01:57:15.957Z,11.93
2022-10-22T02:00:02.206Z,12.85
2022-10-22T02:02:34.801Z,12.88
2022-10-22T02:05:09.570Z,13.55
2022-10-22T02:07:48.477Z,14.23
2022-10-22T02:10:18.362Z,9.52
2022-10-22T02:12:50.475Z,13.55
2022-10-22T02:15:19.863Z,14.35
2022-10-22T02:17:47.622Z,10.75
2022-10-22T02:20:26.195Z,13.57
2022-10-22T02:22:53.127Z,11.18
2022-10-22T02:25:21.804Z,13.88
2022-10-22T02:27:54.309Z,11.48
2022-10-22T02:30:22.859Z,12.65
2022-10-22T02:32:55.504Z,10.98
2022-10-22T02:35:25.129Z,11.70
2022-10-22T02:37:54.520Z,9.57
2022-10-22T02:40:21.839Z,11.65
2022-10-22T02:42:50.450Z,12.55
2022-10-22T02:45:18.498Z,13.70
2022-10-22T02:47:45.263Z,11.95
2022-10-22T02:50:11.721Z,10.85
2022-10-22T02:52:38.744Z,14.45
2022-10-22T02:55:06.961Z,12.45
2022-10-22T02:57:33.874Z,10.57
2022-10-22T03:00:00.458Z,9.60
2022-10-22T03:02:27.238Z,12.45
2022-10-22T03:04:53.798Z,11.73
2022-10-22T03:07:20.444Z,13.88
2022-10-22T03:09:47.047Z,9.52
2022-10-22T03:12:13.590Z,10.07
2022-10-22T03:14:39.987Z,12.90
2022-10-22T03:17:06.483Z,9.95
2022-10-22T03:19:33.337Z,10.68
2022-10-22T03:22:03.167Z,10.85
2022-10-22T03:24:35.695Z,13.68
2022-10-22T03:27:02.454Z,10.02
2022-10-22T03:29:30.805Z,13.32
2022-10-22T03:34:23.793Z,13.18
2022-10-22T03:36:51.949Z,9.48
2022-10-22T03:39:19.892Z,14.25
2022-10-22T03:41:48.262Z,13.07
2022-10-22T03:46:42.008Z,11.77
2022-10-22T03:49:08.499Z,11.15
2022-10-22T03:51:35.870Z,11.05
2022-10-22T03:54:03.541Z,11.80
2022-10-22T03:56:30.513Z,11.10
2022-10-22T03:58:58.472Z,10.63
2022-10-22T04:01:26.217Z,13.05
2022-10-22T04:03:53.490Z,9.93
2022-10-22T04:06:20.006Z,15.32
2022-10-22T04:08:46.666Z,10.65
2022-10-22T04:11:14.628Z,13.43
2022-10-22T04:13:41.669Z,10.63
2022-10-22T04:16:12.787Z,9.60
2022-10-22T04:18:40.448Z,10.73
2022-10-22T04:21:09.580Z,14.57
2022-10-22T04:23:36.452Z,14.18
2022-10-22T04:26:06.221Z,10.65
2022-10-22T04:28:33.463Z,10.45
2022-10-22T04:30:59.948Z,11.15
2022-10-22T04:33:26.723Z,14.20
2022-10-22T04:35:53.329Z,14.35
2022-10-22T04:38:19.783Z,12.40
2022-10-22T04:40:46.188Z,10.40
2022-10-22T04:43:12.696Z,16.83
2022-10-22T04:45:39.149Z,15.98
2022-10-22T04:48:06.106Z,12.75
2022-10-22T04:50:32.513Z,12.40
2022-10-22T04:52:59.054Z,18.90
2022-10-22T04:55:25.575Z,14.57
2022-10-22T04:57:52.037Z,12.25
2022-10-22T05:00:18.543Z,9.52
2022-10-22T05:02:49.487Z,12.85
2022-10-22T05:05:16.073Z,12.52
2022-10-22T05:07:42.680Z,12.52
2022-10-22T05:10:09.881Z,13.05
2022-10-22T05:12:36.338Z,10.35
2022-10-22T05:15:02.892Z,14.57
2022-10-22T05:17:29.341Z,14.55
2022-10-22T05:19:55.760Z,17.00
2022-10-22T05:22:22.260Z,11.05
2022-10-22T05:24:49.158Z,13.13
2022-10-22T05:27:15.627Z,15.18
2022-10-22T05:29:42.037Z,16.52
2022-10-22T05:32:08.529Z,9.93
2022-10-22T05:34:36.166Z,12.82
2022-10-22T05:37:02.640Z,11.57
2022-10-22T05:39:29.202Z,13.85
2022-10-22T05:41:55.619Z,14.90
2022-10-22T05:44:22.082Z,14.50
2022-10-22T05:46:48.629Z,10.80
2022-10-22T05:49:16.100Z,11.65
2022-10-22T05:51:42.771Z,12.63
2022-10-22T05:54:15.638Z,11.68
2022-10-22T05:56:42.220Z,12.20
2022-10-22T05:59:10.804Z,11.65
2022-10-22T06:01:40.089Z,11.98
2022-10-22T06:04:10.606Z,14.55
2022-10-22T06:06:43.100Z,12.40
2022-10-22T06:09:18.673Z,11.52
2022-10-22T06:11:46.129Z,15.48
2022-10-22T06:14:12.676Z,8.85
2022-10-22T06:16:39.610Z,13.95
2022-10-22T06:19:06.442Z,14.90
2022-10-22T06:21:32.970Z,13.18
2022-10-22T06:24:00.857Z,16.80
2022-10-22T06:26:27.550Z,13.77
2022-10-22T06:28:55.980Z,11.63
2022-10-22T06:31:23.399Z,15.23
2022-10-22T06:33:49.914Z,13.38
2022-10-22T06:36:21.754Z,14.25
2022-10-22T06:38:51.452Z,11.30
2022-10-22T06:41:18.286Z,13.65
2022-10-22T06:43:46.830Z,17.25
2022-10-22T06:46:19.048Z,15.25
2022-10-22T06:48:54.832Z,12.88
2022-10-22T06:51:21.695Z,12.25
2022-10-22T06:53:48.668Z,16.95
2022-10-22T06:56:18.389Z,10.80
2022-10-22T06:58:48.511Z,9.48
2022-10-22T07:01:16.688Z,12.38
2022-10-22T07:03:43.148Z,15.43
2022-10-22T07:06:12.779Z,10.00
2022-10-22T07:08:40.111Z,12.90
2022-10-22T07:11:09.523Z,10.32
2022-10-22T07:13:36.632Z,10.57
2022-10-22T07:16:05.010Z,13.77
2022-10-22T07:20:58.190Z,13.40
2022-10-22T07:23:24.908Z,12.95
2022-10-22T07:25:51.511Z,13.57
2022-10-22T07:28:18.253Z,14.60
2022-10-22T07:30:45.224Z,9.43
2022-10-22T07:33:11.671Z,12.95
2022-10-22T07:35:39.777Z,14.48
2022-10-22T07:38:07.984Z,11.73
2022-10-22T07:40:35.344Z,12.63
2022-10-22T07:43:02.254Z,10.88
2022-10-22T07:45:28.811Z,10.20
2022-10-22T07:47:55.341Z,11.85
2022-10-22T07:50:21.845Z,14.45
2022-10-22T07:52:48.328Z,10.20
2022-10-22T07:55:14.833Z,9.15
2022-10-22T07:57:43.672Z,12.68
2022-10-22T08:00:11.041Z,9.93
2022-10-22T08:02:37.667Z,9.10
2022-10-22T08:05:04.843Z,10.93
2022-10-22T08:07:31.401Z,8.27
2022-10-22T08:09:57.897Z,9.27
2022-10-22T08:12:24.424Z,10.30
2022-10-22T08:14:50.962Z,11.10
2022-10-22T08:17:17.592Z,11.05
2022-10-22T08:19:44.176Z,8.43
2022-10-22T08:22:10.726Z,7.15
2022-10-22T08:24:37.210Z,10.20
2022-10-22T08:27:03.683Z,7.93
2022-10-22T08:29:30.204Z,10.57
2022-10-22T08:31:56.650Z,8.30
2022-10-22T08:34:23.110Z,7.28
2022-10-22T08:36:49.569Z,6.90
2022-10-22T08:39:16.048Z,8.80
2022-10-22T08:41:58.471Z,7.35
2022-10-22T08:44:24.900Z,9.18
2022-10-22T08:47:14.827Z,9.82
2022-10-22T08:49:44.132Z,5.75
2022-10-22T08:52:18.814Z,10.05
2022-10-22T08:54:59.815Z,11.23
2022-10-22T08:57:48.686Z,9.77
2022-10-22T09:00:20.883Z,11.30
2022-10-22T09:02:59.721Z,10.27
2022-10-22T09:05:38.282Z,7.63
2022-10-22T09:08:05.501Z,8.40
2022-10-22T09:10:36.309Z,11.25
2022-10-22T09:13:02.769Z,10.07
2022-10-22T09:15:31.395Z,10.43
2022-10-22T09:18:14.384Z,8.18
2022-10-22T09:20:58.868Z,10.90
2022-10-22T09:23:32.818Z,11.25
2022-10-22T09:26:00.108Z,10.30
2022-10-22T09:28:26.664Z,8.88
2022-10-22T09:30:53.293Z,7.50
2022-10-22T09:33:27.064Z,9.90
2022-10-22T09:35:53.437Z,11.18
2022-10-22T09:38:24.749Z,11.35
2022-10-22T09:40:54.255Z,12.95
2022-10-22T09:43:21.321Z,9.25
2022-10-22T09:45:49.646Z,11.13
2022-10-22T09:48:28.361Z,9.20
2022-10-22T09:51:18.145Z,11.50
2022-10-22T09:53:47.161Z,7.75
2022-10-22T09:56:40.916Z,10.13
2022-10-22T09:59:14.895Z,12.23
2022-10-22T10:01:41.588Z,10.02
2022-10-22T10:04:11.046Z,10.80
2022-10-22T10:06:40.568Z,8.57
2022-10-22T10:09:17.454Z,9.05
2022-10-22T10:11:56.810Z,7.78
2022-10-22T10:14:58.575Z,10.05
2022-10-22T10:17:43.059Z,10.23
2022-10-22T10:20:24.213Z,9.52
2022-10-22T10:23:02.835Z,9.30
2022-10-22T10:25:59.984Z,7.28
2022-10-22T10:29:00.655Z,8.23
2022-10-22T10:31:48.483Z,8.40
2022-10-22T10:34:37.302Z,8.15
2022-10-22T10:37:09.719Z,7.85
2022-10-22T10:40:10.346Z,9.45
2022-10-22T10:42:43.931Z,7.97
2022-10-22T10:45:42.871Z,8.80
2022-10-22T10:48:35.041Z,7.45
2022-10-22T10:51:37.147Z,6.95
2022-10-22T10:54:12.575Z,6.60
2022-10-22T10:56:48.997Z,9.15
2022-10-22T10:59:54.651Z,8.65
2022-10-22T11:02:31.104Z,8.45
2022-10-22T11:05:00.558Z,7.70
2022-10-22T11:07:35.201Z,8.77
2022-10-22T11:10:10.117Z,9.98
2022-10-22T11:12:42.385Z,10.20
2022-10-22T11:15:24.996Z,10.10
2022-10-22T11:17:55.390Z,7.85
2022-10-22T11:20:41.168Z,6.57
2022-10-22T11:23:22.507Z,7.63
2022-10-22T11:25:50.622Z,10.13
2022-10-22T11:28:35.296Z,8.40
2022-10-22T11:31:06.715Z,8.07
2022-10-22T11:33:43.637Z,7.47
2022-10-22T11:36:11.871Z,5.70
2022-10-22T11:38:38.926Z,11.10
2022-10-22T11:41:11.058Z,11.15
2022-10-22T11:43:55.517Z,8.73
2022-10-22T11:46:22.024Z,8.52
2022-10-22T11:49:05.155Z,8.60
2022-10-22T11:51:37.003Z,7.20
2022-10-22T11:54:26.340Z,8.68
2022-10-22T11:56:58.726Z,7.20
2022-10-22T11:59:40.092Z,12.00
2022-10-22T12:02:31.658Z,9.20
2022-10-22T12:05:23.037Z,8.80
2022-10-22T12:08:01.053Z,9.13
2022-10-22T12:10:34.250Z,8.43
2022-10-22T12:13:34.259Z,11.55
2022-10-22T12:16:04.163Z,10.73
2022-10-22T12:18:39.777Z,7.13
2022-10-22T12:21:06.266Z,10.13
2022-10-22T12:23:35.611Z,10.38
2022-10-22T12:26:05.379Z,11.20
2022-10-22T12:28:40.535Z,9.57
2022-10-22T12:31:15.232Z,9.40
2022-10-22T12:33:41.748Z,6.72
2022-10-22T12:36:16.248Z,9.65
2022-10-22T12:38:47.158Z,10.05
2022-10-22T12:41:13.712Z,9.50
2022-10-22T12:43:40.183Z,10.68
2022-10-22T12:46:13.798Z,12.50
2022-10-22T12:48:45.641Z,9.60
2022-10-22T12:51:19.856Z,12.02
2022-10-22T12:53:53.011Z,8.20
2022-10-22T12:56:26.406Z,7.88
2022-10-22T12:58:59.122Z,10.23
2022-10-22T13:01:29.119Z,8.13
2022-10-22T13:04:31.281Z,7.57
2022-10-22T13:07:12.413Z,8.30
2022-10-22T13:09:40.910Z,10.35
2022-10-22T13:12:14.802Z,10.30
2022-10-22T13:14:41.806Z,10.32
2022-10-22T13:17:10.545Z,9.77
2022-10-22T13:20:02.130Z,9.38
2022-10-22T13:22:35.905Z,10.40
2022-10-22T13:25:19.484Z,11.07
2022-10-22T13:27:55.703Z,6.57
2022-10-22T13:30:34.117Z,9.63
2022-10-22T13:33:01.943Z,10.68
2022-10-22T13:35:32.443Z,8.95
2022-10-22T13:37:59.915Z,10.20
2022-10-22T13:40:27.253Z,10.55
2022-10-22T13:42:54.036Z,10.10
2022-10-22T13:45:20.813Z,9.40
2022-10-22T13:47:54.708Z,9.32
2022-10-22T13:50:21.738Z,10.35
2022-10-22T13:52:54.333Z,10.38
2022-10-22T13:55:25.524Z,10.38
2022-10-22T13:57:55.127Z,10.05
2022-10-22T14:00:25.833Z,15.25
2022-10-22T14:02:57.548Z,10.35
2022-10-22T14:05:24.092Z,13.02
2022-10-22T14:07:52.012Z,10.60
2022-10-22T14:10:20.583Z,10.07
2022-10-22T14:12:52.316Z,9.88
2022-10-22T14:15:23.981Z,10.15
2022-10-22T14:17:57.776Z,11.73
2022-10-22T14:20:32.574Z,10.57
2022-10-22T14:23:11.756Z,12.98
2022-10-22T14:25:38.339Z,10.20
2022-10-22T14:28:04.977Z,10.82
2022-10-22T14:30:32.822Z,7.75
2022-10-22T14:32:59.390Z,10.60
2022-10-22T14:35:26.056Z,14.77
2022-10-22T14:37:52.594Z,10.40
2022-10-22T14:40:20.431Z,12.48
2022-10-22T14:42:48.519Z,10.63
2022-10-22T14:47:47.980Z,9.90
2022-10-22T14:50:14.977Z,12.52
2022-10-22T14:52:43.598Z,12.00
2022-10-22T14:55:11.939Z,9.38
2022-10-22T15:00:15.205Z,9.90
2022-10-22T15:02:41.873Z,10.93
2022-10-22T15:05:08.821Z,10.50
2022-10-22T15:07:35.717Z,9.20
2022-10-22T15:10:02.199Z,11.55
2022-10-22T15:12:28.648Z,9.88
2022-10-22T15:14:55.100Z,10.13
2022-10-22T15:17:21.681Z,11.48
2022-10-22T15:19:48.242Z,10.98
2022-10-22T15:22:15.047Z,11.80
2022-10-22T15:24:44.857Z,12.15
2022-10-22T15:27:15.091Z,12.73
2022-10-22T15:29:42.319Z,14.18
2022-10-22T15:32:10.433Z,10.65
2022-10-22T15:37:07.296Z,12.35
2022-10-22T15:39:34.126Z,8.95
2022-10-22T15:42:00.661Z,9.38
2022-10-22T15:44:30.086Z,10.73
2022-10-22T15:46:57.138Z,9.20
2022-10-22T15:49:25.896Z,11.52
2022-10-22T15:51:53.348Z,13.20
2022-10-22T15:54:25.686Z,11.10
2022-10-22T15:56:52.399Z,10.80
2022-10-22T15:59:18.983Z,11.05
2022-10-22T16:01:45.784Z,7.55
2022-10-22T16:04:12.629Z,10.57
2022-10-22T16:06:52.338Z,10.95
2022-10-22T16:09:22.176Z,7.93
2022-10-22T16:11:49.567Z,12.00
2022-10-22T16:14:19.750Z,12.55
2022-10-22T16:16:49.468Z,15.80
2022-10-22T16:19:17.374Z,11.43
2022-10-22T16:21:44.953Z,12.45
2022-10-22T16:24:12.093Z,13.20
2022-10-22T16:26:38.527Z,11.07
2022-10-22T16:29:05.625Z,15.13
2022-10-22T16:31:32.088Z,12.80
2022-10-22T16:33:58.918Z,14.00
2022-10-22T16:36:25.616Z,16.25
2022-10-22T16:38:52.046Z,16.63
2022-10-22T16:41:21.323Z,16.65
2022-10-22T16:43:49.634Z,15.38
2022-10-22T16:46:18.936Z,18.42
2022-10-22T16:48:49.700Z,13.82
2022-10-22T16:51:19.825Z,15.20
2022-10-22T16:53:46.351Z,13.73
2022-10-22T16:56:14.699Z,18.70
2022-10-22T16:58:47.162Z,13.98
2022-10-22T17:01:17.809Z,16.25
2022-10-22T17:03:44.828Z,11.75
2022-10-22T17:06:12.001Z,9.75
2022-10-22T17:08:39.981Z,11.18
2022-10-22T17:11:07.884Z,12.43
2022-10-22T17:13:35.175Z,9.93
2022-10-22T17:16:07.152Z,14.60
2022-10-22T17:21:14.867Z,17.13
2022-10-22T17:26:22.842Z,14.35
2022-10-22T17:28:50.154Z,15.05
2022-10-22T17:31:26.459Z,16.35
2022-10-22T17:33:55.165Z,18.08
2022-10-22T17:36:23.382Z,19.38
2022-10-22T17:41:20.504Z,14.35
2022-10-22T17:43:47.382Z,21.88
2022-10-22T17:46:23.168Z,23.13
2022-10-22T17:48:52.329Z,21.42
2022-10-22T17:51:19.315Z,17.83
2022-10-22T17:53:46.162Z,15.80
2022-10-22T17:56:15.097Z,15.63
2022-10-22T17:58:41.798Z,16.27
2022-10-22T18:01:23.290Z,15.13
2022-10-22T18:03:50.312Z,14.50
2022-10-22T18:06:17.104Z,15.40
2022-10-22T18:08:44.066Z,12.57
2022-10-22T18:11:16.854Z,16.98
2022-10-22T18:13:43.390Z,19.75
2022-10-22T18:16:10.059Z,14.82
2022-10-22T18:18:36.626Z,13.98
2022-10-22T18:21:03.823Z,15.82
2022-10-22T18:23:30.279Z,15.80
2022-10-22T18:25:56.804Z,17.80
2022-10-22T18:28:23.283Z,16.30
2022-10-22T18:30:49.868Z,18.77
2022-10-22T18:33:18.532Z,17.35
2022-10-22T18:35:46.273Z,17.77
2022-10-22T18:38:12.815Z,12.15
2022-10-22T18:40:46.162Z,19.52
2022-10-22T18:43:12.750Z,14.30
2022-10-22T18:45:44.004Z,10.60
2022-10-22T18:48:12.442Z,13.98
2022-10-22T18:50:38.947Z,21.92
2022-10-22T18:53:06.276Z,17.17
2022-10-22T18:55:34.154Z,16.40
2022-10-22T18:58:00.611Z,15.95
2022-10-22T19:00:27.179Z,17.15
2022-10-22T19:02:54.886Z,16.70
2022-10-22T19:05:24.378Z,14.93
2022-10-22T19:07:50.943Z,19.17
2022-10-22T19:10:18.402Z,17.58
2022-10-22T19:12:44.845Z,15.02
2022-10-22T19:15:11.291Z,16.73
2022-10-22T19:17:37.696Z,12.02
2022-10-22T19:20:04.830Z,14.50
2022-10-22T19:22:31.988Z,13.40
2022-10-22T19:24:58.896Z,10.88
2022-10-22T19:27:25.729Z,14.23
2022-10-22T19:29:52.298Z,11.18
2022-10-22T19:32:20.137Z,12.50
2022-10-22T19:34:47.217Z,12.68
2022-10-22T19:37:13.902Z,15.43
2022-10-22T19:39:40.351Z,14.02
2022-10-22T19:42:06.863Z,12.45
2022-10-22T19:44:33.547Z,13.63
2022-10-22T19:47:00.000Z,12.32
2022-10-22T19:49:26.605Z,13.90
2022-10-22T19:51:53.058Z,19.35
2022-10-22T19:54:20.702Z,14.82
2022-10-22T19:56:48.190Z,16.17
2022-10-22T19:59:16.136Z,19.48
2022-10-22T20:01:43.048Z,17.83
2022-10-22T20:04:15.793Z,21.30
2022-10-22T20:06:43.532Z,15.73
2022-10-22T20:09:11.255Z,18.40
2022-10-22T20:11:37.800Z,17.25
2022-10-22T20:14:04.367Z,17.48
2022-10-22T20:16:31.207Z,19.05
2022-10-22T20:19:02.998Z,15.07
2022-10-22T20:21:30.234Z,12.75
2022-10-22T20:23:57.558Z,9.93
2022-10-22T20:26:27.981Z,11.50
2022-10-22T20:28:55.983Z,11.27
2022-10-22T20:31:25.017Z,11.45
2022-10-22T20:33:51.536Z,9.15
2022-10-22T20:36:23.028Z,14.02
2022-10-22T20:38:50.616Z,9.80
2022-10-22T20:41:22.160Z,10.98
2022-10-22T20:43:50.571Z,8.70
2022-10-22T20:46:29.375Z,8.80
2022-10-22T20:49:05.885Z,14.00
2022-10-22T20:51:32.464Z,15.63
2022-10-22T20:53:58.944Z,14.38
2022-10-22T20:56:26.424Z,16.52
2022-10-22T20:59:03.940Z,15.20
2022-10-22T21:01:50.789Z,18.23
2022-10-22T21:04:19.531Z,17.25
2022-10-22T21:06:46.036Z,14.65
2022-10-22T21:09:14.149Z,15.85
2022-10-22T21:11:42.665Z,22.33
2022-10-22T21:14:10.860Z,16.13
2022-10-22T21:16:44.508Z,12.98
2022-10-22T21:19:11.965Z,18.95
2022-10-22T21:21:38.454Z,17.50
2022-10-22T21:24:05.025Z,15.52
2022-10-22T21:26:31.490Z,17.85
2022-10-22T21:28:57.951Z,12.32
2022-10-22T21:31:26.273Z,17.23
2022-10-22T21:36:23.287Z,12.30
2022-10-22T21:38:51.757Z,17.13
2022-10-22T21:41:20.410Z,12.07
2022-10-22T21:43:47.268Z,17.92
2022-10-22T21:46:19.926Z,13.43
2022-10-22T21:48:46.895Z,19.13
2022-10-22T21:51:16.701Z,15.65
2022-10-22T21:53:43.940Z,18.20
2022-10-22T21:56:22.332Z,19.63
2022-10-22T21:58:48.886Z,17.35
2022-10-22T22:01:16.536Z,16.20
2022-10-22T22:03:45.879Z,13.82
2022-10-22T22:06:13.486Z,16.35
2022-10-22T22:08:40.137Z,13.38
2022-10-22T22:11:15.283Z,15.75
2022-10-22T22:13:42.277Z,17.80
2022-10-22T22:16:11.932Z,13.90
2022-10-22T22:18:39.737Z,13.35
2022-10-22T22:21:15.533Z,14.63
2022-10-22T22:23:44.991Z,14.25
2022-10-22T22:26:12.550Z,14.75
2022-10-22T22:28:39.244Z,14.90
2022-10-22T22:31:14.891Z,15.50
2022-10-22T22:33:41.845Z,18.30
2022-10-22T22:36:09.062Z,14.93
2022-10-22T22:38:35.774Z,13.75
2022-10-22T22:41:02.276Z,13.52
2022-10-22T22:43:28.843Z,11.32
2022-10-22T22:46:07.494Z,13.43
2022-10-22T22:48:34.778Z,15.05
2022-10-22T22:51:07.887Z,14.98
2022-10-22T22:53:35.248Z,14.60
2022-10-22T22:56:17.234Z,11.32
2022-10-22T22:58:44.425Z,12.35
2022-10-22T23:01:15.355Z,12.77
2022-10-22T23:03:43.623Z,13.20
2022-10-22T23:06:10.937Z,15.30
2022-10-22T23:08:38.109Z,13.85
2022-10-22T23:11:10.876Z,15.82
2022-10-22T23:13:38.563Z,19.23
2022-10-22T23:16:12.487Z,15.65
2022-10-22T23:18:39.013Z,16.42
2022-10-22T23:21:15.377Z,19.88
2022-10-22T23:23:46.812Z,20.10
2022-10-22T23:26:15.104Z,16.38
2022-10-22T23:31:08.036Z,16.75
2022-10-22T23:33:34.915Z,19.65
2022-10-22T23:36:02.016Z,19.40
2022-10-22T23:38:28.791Z,20.40
2022-10-22T23:40:57.109Z,23.95
2022-10-22T23:45:50.687Z,20.48
2022-10-22T23:48:17.347Z,22.77
2022-10-22T23:50:43.899Z,20.33
2022-10-22T23:53:10.399Z,20.50
2022-10-22T23:55:38.349Z,21.80
2022-10-22T23:58:04.865Z,26.08
